sensor_id;sensor_type;location;lat;lon;timestamp;P1;durP1;ratioP1;P2;durP2;ratioP2
42036;SDS011;30340;52.004;5.908;2023-01-19T00:01:30;16.02;;;8.38;;
42036;SDS011;30340;52.004;5.908;2023-01-19T00:03:55;15.38;;;9.18;;
42036;SDS011;30340;52.004;5.908;2023-01-19T00:06:21;11.80;;;7.07;;
42036;SDS011;30340;52.004;5.908;2023-01-19T00:08:46;10.48;;;6.25;;
42036;SDS011;30340;52.004;5.908;2023-01-19T00:11:14;20.88;;;10.20;;
42036;SDS011;30340;52.004;5.908;2023-01-19T00:13:43;15.70;;;8.73;;
42036;SDS011;30340;52.004;5.908;2023-01-19T00:16:16;12.35;;;7.63;;
42036;SDS011;30340;52.004;5.908;2023-01-19T00:18:43;16.50;;;8.93;;
42036;SDS011;30340;52.004;5.908;2023-01-19T00:21:09;12.15;;;7.10;;
42036;SDS011;30340;52.004;5.908;2023-01-19T00:23:35;13.73;;;7.55;;
42036;SDS011;30340;52.004;5.908;2023-01-19T00:26:00;12.80;;;7.47;;
42036;SDS011;30340;52.004;5.908;2023-01-19T00:28:26;11.45;;;6.68;;
42036;SDS011;30340;52.004;5.908;2023-01-19T00:30:51;15.45;;;8.25;;
42036;SDS011;30340;52.004;5.908;2023-01-19T00:33:17;15.70;;;8.20;;
42036;SDS011;30340;52.004;5.908;2023-01-19T00:35:43;14.82;;;9.00;;
42036;SDS011;30340;52.004;5.908;2023-01-19T00:38:09;13.50;;;8.02;;
42036;SDS011;30340;52.004;5.908;2023-01-19T00:40:35;14.85;;;9.27;;
42036;SDS011;30340;52.004;5.908;2023-01-19T00:43:01;16.20;;;9.02;;
42036;SDS011;30340;52.004;5.908;2023-01-19T00:45:28;12.40;;;7.38;;
42036;SDS011;30340;52.004;5.908;2023-01-19T00:47:53;13.15;;;6.72;;
42036;SDS011;30340;52.004;5.908;2023-01-19T00:50:21;13.98;;;7.90;;
42036;SDS011;30340;52.004;5.908;2023-01-19T00:52:48;20.35;;;11.07;;
42036;SDS011;30340;52.004;5.908;2023-01-19T00:55:15;15.00;;;8.77;;
42036;SDS011;30340;52.004;5.908;2023-01-19T00:57:41;18.05;;;9.13;;
42036;SDS011;30340;52.004;5.908;2023-01-19T01:00:08;11.65;;;7.45;;
42036;SDS011;30340;52.004;5.908;2023-01-19T01:02:37;14.65;;;8.13;;
42036;SDS011;30340;52.004;5.908;2023-01-19T01:05:04;15.20;;;8.90;;
42036;SDS011;30340;52.004;5.908;2023-01-19T01:07:30;17.25;;;8.50;;
42036;SDS011;30340;52.004;5.908;2023-01-19T01:10:12;15.82;;;8.38;;
42036;SDS011;30340;52.004;5.908;2023-01-19T01:12:40;11.85;;;7.10;;
42036;SDS011;30340;52.004;5.908;2023-01-19T01:15:07;16.02;;;8.68;;
42036;SDS011;30340;52.004;5.908;2023-01-19T01:17:34;13.38;;;8.57;;
42036;SDS011;30340;52.004;5.908;2023-01-19T01:20:00;18.17;;;8.88;;
42036;SDS011;30340;52.004;5.908;2023-01-19T01:22:28;15.95;;;8.98;;
42036;SDS011;30340;52.004;5.908;2023-01-19T01:24:54;12.18;;;7.22;;
42036;SDS011;30340;52.004;5.908;2023-01-19T01:27:20;13.23;;;7.50;;
42036;SDS011;30340;52.004;5.908;2023-01-19T01:29:47;12.75;;;7.75;;
42036;SDS011;30340;52.004;5.908;2023-01-19T01:32:13;10.50;;;6.43;;
42036;SDS011;30340;52.004;5.908;2023-01-19T01:34:40;15.93;;;8.50;;
42036;SDS011;30340;52.004;5.908;2023-01-19T01:37:06;16.20;;;9.52;;
42036;SDS011;30340;52.004;5.908;2023-01-19T01:39:32;12.10;;;7.18;;
42036;SDS011;30340;52.004;5.908;2023-01-19T01:42:02;10.25;;;6.22;;
42036;SDS011;30340;52.004;5.908;2023-01-19T01:50:36;10.70;;;6.10;;
42036;SDS011;30340;52.004;5.908;2023-01-19T01:53:07;12.82;;;7.00;;
42036;SDS011;30340;52.004;5.908;2023-01-19T01:55:44;13.52;;;6.32;;
42036;SDS011;30340;52.004;5.908;2023-01-19T01:58:12;10.05;;;5.85;;
42036;SDS011;30340;52.004;5.908;2023-01-19T02:00:40;11.15;;;5.95;;
42036;SDS011;30340;52.004;5.908;2023-01-19T02:03:24;13.32;;;7.20;;
42036;SDS011;30340;52.004;5.908;2023-01-19T02:05:51;10.45;;;6.32;;
42036;SDS011;30340;52.004;5.908;2023-01-19T02:08:24;11.98;;;7.10;;
42036;SDS011;30340;52.004;5.908;2023-01-19T02:11:21;13.07;;;6.60;;
42036;SDS011;30340;52.004;5.908;2023-01-19T02:14:06;13.13;;;7.25;;
42036;SDS011;30340;52.004;5.908;2023-01-19T02:16:32;11.98;;;7.00;;
42036;SDS011;30340;52.004;5.908;2023-01-19T02:18:58;14.70;;;7.53;;
42036;SDS011;30340;52.004;5.908;2023-01-19T02:21:41;11.65;;;7.07;;
42036;SDS011;30340;52.004;5.908;2023-01-19T02:24:25;13.02;;;7.28;;
42036;SDS011;30340;52.004;5.908;2023-01-19T02:26:52;10.90;;;6.75;;
42036;SDS011;30340;52.004;5.908;2023-01-19T02:29:19;11.10;;;7.35;;
42036;SDS011;30340;52.004;5.908;2023-01-19T02:31:46;11.05;;;6.63;;
42036;SDS011;30340;52.004;5.908;2023-01-19T02:34:16;12.32;;;6.75;;
42036;SDS011;30340;52.004;5.908;2023-01-19T02:36:46;9.93;;;6.30;;
42036;SDS011;30340;52.004;5.908;2023-01-19T02:39:18;10.63;;;6.55;;
42036;SDS011;30340;52.004;5.908;2023-01-19T02:41:50;10.13;;;6.00;;
42036;SDS011;30340;52.004;5.908;2023-01-19T02:44:19;10.45;;;6.40;;
42036;SDS011;30340;52.004;5.908;2023-01-19T02:46:47;9.32;;;6.15;;
42036;SDS011;30340;52.004;5.908;2023-01-19T02:49:13;10.15;;;6.20;;
42036;SDS011;30340;52.004;5.908;2023-01-19T02:51:38;12.38;;;7.45;;
42036;SDS011;30340;52.004;5.908;2023-01-19T03:02:22;10.23;;;6.28;;
42036;SDS011;30340;52.004;5.908;2023-01-19T03:04:58;8.13;;;5.28;;
42036;SDS011;30340;52.004;5.908;2023-01-19T03:18:16;5.25;;;3.80;;
42036;SDS011;30340;52.004;5.908;2023-01-19T03:20:45;5.20;;;3.80;;
42036;SDS011;30340;52.004;5.908;2023-01-19T03:23:14;3.90;;;2.88;;
42036;SDS011;30340;52.004;5.908;2023-01-19T03:25:41;4.88;;;3.42;;
42036;SDS011;30340;52.004;5.908;2023-01-19T03:28:09;5.13;;;3.20;;
42036;SDS011;30340;52.004;5.908;2023-01-19T03:30:38;6.07;;;3.20;;
42036;SDS011;30340;52.004;5.908;2023-01-19T03:33:07;3.30;;;2.40;;
42036;SDS011;30340;52.004;5.908;2023-01-19T03:35:37;3.80;;;2.47;;
42036;SDS011;30340;52.004;5.908;2023-01-19T03:38:08;3.53;;;2.55;;
42036;SDS011;30340;52.004;5.908;2023-01-19T03:40:39;2.53;;;2.10;;
42036;SDS011;30340;52.004;5.908;2023-01-19T03:43:05;2.63;;;2.03;;
42036;SDS011;30340;52.004;5.908;2023-01-19T03:45:32;2.20;;;1.80;;
42036;SDS011;30340;52.004;5.908;2023-01-19T03:48:02;3.17;;;2.30;;
42036;SDS011;30340;52.004;5.908;2023-01-19T03:50:29;3.50;;;2.25;;
42036;SDS011;30340;52.004;5.908;2023-01-19T03:53:15;2.50;;;1.70;;
42036;SDS011;30340;52.004;5.908;2023-01-19T03:55:42;1.90;;;1.70;;
42036;SDS011;30340;52.004;5.908;2023-01-19T03:58:11;3.70;;;1.65;;
42036;SDS011;30340;52.004;5.908;2023-01-19T04:00:36;1.50;;;1.40;;
42036;SDS011;30340;52.004;5.908;2023-01-19T04:03:03;3.60;;;1.52;;
42036;SDS011;30340;52.004;5.908;2023-01-19T04:05:29;1.85;;;1.20;;
42036;SDS011;30340;52.004;5.908;2023-01-19T04:07:55;3.05;;;1.50;;
42036;SDS011;30340;52.004;5.908;2023-01-19T04:10:21;1.25;;;1.10;;
42036;SDS011;30340;52.004;5.908;2023-01-19T04:12:47;3.60;;;1.20;;
42036;SDS011;30340;52.004;5.908;2023-01-19T04:15:13;1.15;;;1.00;;
42036;SDS011;30340;52.004;5.908;2023-01-19T04:17:39;2.75;;;0.80;;
42036;SDS011;30340;52.004;5.908;2023-01-19T04:20:06;3.72;;;1.00;;
42036;SDS011;30340;52.004;5.908;2023-01-19T04:22:32;2.85;;;0.90;;
42036;SDS011;30340;52.004;5.908;2023-01-19T04:24:58;1.90;;;0.82;;
42036;SDS011;30340;52.004;5.908;2023-01-19T04:27:23;2.20;;;0.80;;
42036;SDS011;30340;52.004;5.908;2023-01-19T04:29:50;1.15;;;0.90;;
42036;SDS011;30340;52.004;5.908;2023-01-19T04:32:15;4.20;;;1.20;;
42036;SDS011;30340;52.004;5.908;2023-01-19T04:34:41;1.00;;;0.90;;
42036;SDS011;30340;52.004;5.908;2023-01-19T04:37:07;1.00;;;0.90;;
42036;SDS011;30340;52.004;5.908;2023-01-19T04:39:33;1.30;;;1.20;;
42036;SDS011;30340;52.004;5.908;2023-01-19T04:41:59;1.42;;;1.10;;
42036;SDS011;30340;52.004;5.908;2023-01-19T04:44:25;1.52;;;0.85;;
42036;SDS011;30340;52.004;5.908;2023-01-19T04:46:51;1.52;;;1.30;;
42036;SDS011;30340;52.004;5.908;2023-01-19T04:49:16;1.98;;;0.90;;
42036;SDS011;30340;52.004;5.908;2023-01-19T04:51:42;2.67;;;1.00;;
42036;SDS011;30340;52.004;5.908;2023-01-19T04:54:08;3.20;;;1.25;;
42036;SDS011;30340;52.004;5.908;2023-01-19T04:56:34;2.22;;;1.05;;
42036;SDS011;30340;52.004;5.908;2023-01-19T04:59:00;2.20;;;0.80;;
42036;SDS011;30340;52.004;5.908;2023-01-19T05:01:25;3.45;;;0.98;;
42036;SDS011;30340;52.004;5.908;2023-01-19T05:03:51;1.55;;;1.02;;
42036;SDS011;30340;52.004;5.908;2023-01-19T05:06:17;1.73;;;1.00;;
42036;SDS011;30340;52.004;5.908;2023-01-19T05:08:42;1.40;;;1.30;;
42036;SDS011;30340;52.004;5.908;2023-01-19T05:11:08;1.20;;;1.10;;
42036;SDS011;30340;52.004;5.908;2023-01-19T05:13:34;1.30;;;1.05;;
42036;SDS011;30340;52.004;5.908;2023-01-19T05:16:00;2.25;;;1.60;;
42036;SDS011;30340;52.004;5.908;2023-01-19T05:18:25;2.75;;;1.38;;
42036;SDS011;30340;52.004;5.908;2023-01-19T05:20:51;2.92;;;1.20;;
42036;SDS011;30340;52.004;5.908;2023-01-19T05:23:17;1.33;;;1.10;;
42036;SDS011;30340;52.004;5.908;2023-01-19T05:25:42;2.58;;;1.38;;
42036;SDS011;30340;52.004;5.908;2023-01-19T05:28:08;3.08;;;1.08;;
42036;SDS011;30340;52.004;5.908;2023-01-19T05:30:34;2.33;;;1.02;;
42036;SDS011;30340;52.004;5.908;2023-01-19T05:33:00;2.10;;;0.95;;
42036;SDS011;30340;52.004;5.908;2023-01-19T05:35:26;1.85;;;1.20;;
42036;SDS011;30340;52.004;5.908;2023-01-19T05:37:51;1.73;;;1.00;;
42036;SDS011;30340;52.004;5.908;2023-01-19T05:40:17;1.65;;;0.98;;
42036;SDS011;30340;52.004;5.908;2023-01-19T05:42:42;3.25;;;0.95;;
42036;SDS011;30340;52.004;5.908;2023-01-19T05:45:08;2.83;;;0.90;;
42036;SDS011;30340;52.004;5.908;2023-01-19T05:47:34;2.10;;;1.00;;
42036;SDS011;30340;52.004;5.908;2023-01-19T05:49:59;0.95;;;0.82;;
42036;SDS011;30340;52.004;5.908;2023-01-19T05:52:25;2.85;;;1.38;;
42036;SDS011;30340;52.004;5.908;2023-01-19T05:54:51;4.00;;;1.00;;
42036;SDS011;30340;52.004;5.908;2023-01-19T05:57:18;1.48;;;0.90;;
42036;SDS011;30340;52.004;5.908;2023-01-19T05:59:44;2.00;;;1.10;;
42036;SDS011;30340;52.004;5.908;2023-01-19T06:02:09;4.05;;;0.90;;
42036;SDS011;30340;52.004;5.908;2023-01-19T06:04:35;3.03;;;0.80;;
42036;SDS011;30340;52.004;5.908;2023-01-19T06:07:00;4.05;;;0.88;;
42036;SDS011;30340;52.004;5.908;2023-01-19T06:09:26;4.53;;;0.90;;
42036;SDS011;30340;52.004;5.908;2023-01-19T06:11:53;7.00;;;1.10;;
42036;SDS011;30340;52.004;5.908;2023-01-19T06:14:20;2.60;;;0.93;;
42036;SDS011;30340;52.004;5.908;2023-01-19T06:16:46;5.13;;;1.10;;
42036;SDS011;30340;52.004;5.908;2023-01-19T06:19:11;4.32;;;1.10;;
42036;SDS011;30340;52.004;5.908;2023-01-19T06:21:37;2.33;;;0.90;;
42036;SDS011;30340;52.004;5.908;2023-01-19T06:24:03;1.80;;;0.70;;
42036;SDS011;30340;52.004;5.908;2023-01-19T06:26:29;3.33;;;0.82;;
42036;SDS011;30340;52.004;5.908;2023-01-19T06:28:54;3.50;;;1.20;;
42036;SDS011;30340;52.004;5.908;2023-01-19T06:31:20;4.40;;;1.08;;
42036;SDS011;30340;52.004;5.908;2023-01-19T06:33:46;3.38;;;0.90;;
42036;SDS011;30340;52.004;5.908;2023-01-19T06:36:11;4.10;;;1.30;;
42036;SDS011;30340;52.004;5.908;2023-01-19T06:38:37;2.00;;;0.73;;
42036;SDS011;30340;52.004;5.908;2023-01-19T06:41:02;1.75;;;0.85;;
42036;SDS011;30340;52.004;5.908;2023-01-19T06:43:29;1.70;;;0.98;;
42036;SDS011;30340;52.004;5.908;2023-01-19T06:45:55;2.10;;;1.00;;
42036;SDS011;30340;52.004;5.908;2023-01-19T06:48:21;7.03;;;0.98;;
42036;SDS011;30340;52.004;5.908;2023-01-19T06:50:47;6.63;;;1.13;;
42036;SDS011;30340;52.004;5.908;2023-01-19T06:53:13;2.88;;;1.00;;
42036;SDS011;30340;52.004;5.908;2023-01-19T06:55:40;4.18;;;1.00;;
42036;SDS011;30340;52.004;5.908;2023-01-19T06:58:09;2.30;;;1.02;;
42036;SDS011;30340;52.004;5.908;2023-01-19T07:00:35;4.93;;;1.30;;
42036;SDS011;30340;52.004;5.908;2023-01-19T07:03:01;5.10;;;1.30;;
42036;SDS011;30340;52.004;5.908;2023-01-19T07:05:30;3.63;;;1.20;;
42036;SDS011;30340;52.004;5.908;2023-01-19T07:07:55;3.13;;;1.05;;
42036;SDS011;30340;52.004;5.908;2023-01-19T07:10:22;5.03;;;1.10;;
42036;SDS011;30340;52.004;5.908;2023-01-19T07:12:48;5.03;;;1.30;;
42036;SDS011;30340;52.004;5.908;2023-01-19T07:15:14;6.00;;;1.25;;
42036;SDS011;30340;52.004;5.908;2023-01-19T07:17:42;4.93;;;1.52;;
42036;SDS011;30340;52.004;5.908;2023-01-19T07:20:08;6.70;;;1.70;;
42036;SDS011;30340;52.004;5.908;2023-01-19T07:22:37;4.65;;;1.50;;
42036;SDS011;30340;52.004;5.908;2023-01-19T07:25:03;6.78;;;2.25;;
42036;SDS011;30340;52.004;5.908;2023-01-19T07:27:29;6.78;;;1.73;;
42036;SDS011;30340;52.004;5.908;2023-01-19T07:29:55;2.05;;;1.30;;
42036;SDS011;30340;52.004;5.908;2023-01-19T07:32:21;7.05;;;1.77;;
42036;SDS011;30340;52.004;5.908;2023-01-19T07:34:46;5.65;;;1.30;;
42036;SDS011;30340;52.004;5.908;2023-01-19T07:37:12;4.05;;;1.40;;
42036;SDS011;30340;52.004;5.908;2023-01-19T07:39:38;7.28;;;1.58;;
42036;SDS011;30340;52.004;5.908;2023-01-19T07:42:03;5.05;;;1.38;;
42036;SDS011;30340;52.004;5.908;2023-01-19T07:44:29;7.00;;;1.30;;
42036;SDS011;30340;52.004;5.908;2023-01-19T07:46:54;5.10;;;1.80;;
42036;SDS011;30340;52.004;5.908;2023-01-19T07:49:20;4.18;;;1.45;;
42036;SDS011;30340;52.004;5.908;2023-01-19T07:51:45;3.67;;;1.90;;
42036;SDS011;30340;52.004;5.908;2023-01-19T07:54:11;7.60;;;2.42;;
42036;SDS011;30340;52.004;5.908;2023-01-19T07:56:37;6.13;;;2.20;;
42036;SDS011;30340;52.004;5.908;2023-01-19T07:59:02;5.85;;;2.25;;
42036;SDS011;30340;52.004;5.908;2023-01-19T08:01:28;4.15;;;2.42;;
42036;SDS011;30340;52.004;5.908;2023-01-19T08:03:54;5.32;;;2.53;;
42036;SDS011;30340;52.004;5.908;2023-01-19T08:06:21;5.85;;;1.77;;
42036;SDS011;30340;52.004;5.908;2023-01-19T08:08:48;6.63;;;2.17;;
42036;SDS011;30340;52.004;5.908;2023-01-19T08:11:14;7.07;;;2.00;;
42036;SDS011;30340;52.004;5.908;2023-01-19T08:13:40;4.80;;;2.60;;
42036;SDS011;30340;52.004;5.908;2023-01-19T08:16:07;6.32;;;2.50;;
42036;SDS011;30340;52.004;5.908;2023-01-19T08:18:32;5.28;;;2.20;;
42036;SDS011;30340;52.004;5.908;2023-01-19T08:20:58;6.70;;;2.33;;
42036;SDS011;30340;52.004;5.908;2023-01-19T08:23:24;7.07;;;2.58;;
42036;SDS011;30340;52.004;5.908;2023-01-19T08:25:50;5.35;;;2.33;;
42036;SDS011;30340;52.004;5.908;2023-01-19T08:28:16;2.88;;;1.70;;
42036;SDS011;30340;52.004;5.908;2023-01-19T08:30:42;5.20;;;2.40;;
42036;SDS011;30340;52.004;5.908;2023-01-19T08:33:09;6.15;;;2.33;;
42036;SDS011;30340;52.004;5.908;2023-01-19T08:35:36;7.75;;;2.47;;
42036;SDS011;30340;52.004;5.908;2023-01-19T08:38:03;8.30;;;2.45;;
42036;SDS011;30340;52.004;5.908;2023-01-19T08:40:30;9.07;;;2.50;;
42036;SDS011;30340;52.004;5.908;2023-01-19T08:43:03;5.95;;;2.53;;
42036;SDS011;30340;52.004;5.908;2023-01-19T08:45:36;3.60;;;2.28;;
42036;SDS011;30340;52.004;5.908;2023-01-19T08:48:05;6.95;;;2.72;;
42036;SDS011;30340;52.004;5.908;2023-01-19T08:50:32;4.28;;;2.40;;
42036;SDS011;30340;52.004;5.908;2023-01-19T08:52:59;5.75;;;2.55;;
42036;SDS011;30340;52.004;5.908;2023-01-19T08:55:26;7.28;;;2.55;;
42036;SDS011;30340;52.004;5.908;2023-01-19T08:57:53;5.82;;;2.20;;
42036;SDS011;30340;52.004;5.908;2023-01-19T09:00:21;10.05;;;2.88;;
42036;SDS011;30340;52.004;5.908;2023-01-19T09:02:47;5.88;;;2.70;;
42036;SDS011;30340;52.004;5.908;2023-01-19T09:05:13;6.13;;;2.75;;
42036;SDS011;30340;52.004;5.908;2023-01-19T09:07:39;8.00;;;2.63;;
42036;SDS011;30340;52.004;5.908;2023-01-19T09:10:06;7.78;;;2.50;;
42036;SDS011;30340;52.004;5.908;2023-01-19T09:12:32;9.63;;;2.55;;
42036;SDS011;30340;52.004;5.908;2023-01-19T09:14:58;4.97;;;2.08;;
42036;SDS011;30340;52.004;5.908;2023-01-19T09:17:23;7.25;;;2.65;;
42036;SDS011;30340;52.004;5.908;2023-01-19T09:19:49;3.80;;;2.10;;
42036;SDS011;30340;52.004;5.908;2023-01-19T09:22:14;6.50;;;3.10;;
42036;SDS011;30340;52.004;5.908;2023-01-19T09:24:40;7.15;;;2.90;;
42036;SDS011;30340;52.004;5.908;2023-01-19T09:27:06;6.65;;;2.80;;
42036;SDS011;30340;52.004;5.908;2023-01-19T09:29:31;6.95;;;2.90;;
42036;SDS011;30340;52.004;5.908;2023-01-19T09:31:57;6.40;;;2.83;;
42036;SDS011;30340;52.004;5.908;2023-01-19T09:34:22;7.65;;;2.92;;
42036;SDS011;30340;52.004;5.908;2023-01-19T09:36:49;6.45;;;2.72;;
42036;SDS011;30340;52.004;5.908;2023-01-19T09:39:15;6.07;;;2.97;;
42036;SDS011;30340;52.004;5.908;2023-01-19T09:41:43;5.80;;;2.63;;
42036;SDS011;30340;52.004;5.908;2023-01-19T09:44:17;7.57;;;2.67;;
42036;SDS011;30340;52.004;5.908;2023-01-19T09:46:48;2.70;;;2.00;;
42036;SDS011;30340;52.004;5.908;2023-01-19T09:49:14;4.80;;;2.85;;
42036;SDS011;30340;52.004;5.908;2023-01-19T09:51:54;7.38;;;2.53;;
42036;SDS011;30340;52.004;5.908;2023-01-19T09:54:38;7.13;;;2.40;;
42036;SDS011;30340;52.004;5.908;2023-01-19T09:57:12;6.80;;;2.33;;
42036;SDS011;30340;52.004;5.908;2023-01-19T09:59:38;7.55;;;2.58;;
42036;SDS011;30340;52.004;5.908;2023-01-19T10:07:40;7.50;;;2.17;;
42036;SDS011;30340;52.004;5.908;2023-01-19T10:10:17;9.18;;;2.13;;
42036;SDS011;30340;52.004;5.908;2023-01-19T10:18:27;6.70;;;1.85;;
42036;SDS011;30340;52.004;5.908;2023-01-19T10:26:23;5.03;;;1.80;;
42036;SDS011;30340;52.004;5.908;2023-01-19T10:28:53;4.78;;;1.77;;
42036;SDS011;30340;52.004;5.908;2023-01-19T10:31:22;7.20;;;1.75;;
42036;SDS011;30340;52.004;5.908;2023-01-19T10:33:51;3.17;;;1.33;;
42036;SDS011;30340;52.004;5.908;2023-01-19T10:36:19;6.10;;;1.65;;
42036;SDS011;30340;52.004;5.908;2023-01-19T10:38:47;6.55;;;1.40;;
42036;SDS011;30340;52.004;5.908;2023-01-19T10:41:16;2.72;;;1.55;;
42036;SDS011;30340;52.004;5.908;2023-01-19T10:43:44;5.38;;;1.30;;
42036;SDS011;30340;52.004;5.908;2023-01-19T10:48:57;10.00;;;2.00;;
42036;SDS011;30340;52.004;5.908;2023-01-19T10:51:24;5.13;;;1.48;;
42036;SDS011;30340;52.004;5.908;2023-01-19T10:53:56;7.65;;;1.40;;
42036;SDS011;30340;52.004;5.908;2023-01-19T10:56:28;4.35;;;1.40;;
42036;SDS011;30340;52.004;5.908;2023-01-19T10:59:00;6.97;;;1.52;;
42036;SDS011;30340;52.004;5.908;2023-01-19T11:01:27;11.30;;;2.40;;
42036;SDS011;30340;52.004;5.908;2023-01-19T11:03:55;7.47;;;2.10;;
42036;SDS011;30340;52.004;5.908;2023-01-19T11:06:29;6.25;;;2.00;;
42036;SDS011;30340;52.004;5.908;2023-01-19T11:09:10;6.45;;;2.40;;
42036;SDS011;30340;52.004;5.908;2023-01-19T11:11:44;7.60;;;2.38;;
42036;SDS011;30340;52.004;5.908;2023-01-19T11:14:16;11.20;;;3.00;;
42036;SDS011;30340;52.004;5.908;2023-01-19T11:16:50;6.55;;;2.40;;
42036;SDS011;30340;52.004;5.908;2023-01-19T11:19:20;8.50;;;2.50;;
42036;SDS011;30340;52.004;5.908;2023-01-19T11:21:49;7.45;;;3.03;;
42036;SDS011;30340;52.004;5.908;2023-01-19T11:24:15;10.40;;;3.33;;
42036;SDS011;30340;52.004;5.908;2023-01-19T11:26:45;9.35;;;3.30;;
42036;SDS011;30340;52.004;5.908;2023-01-19T11:29:17;6.70;;;1.70;;
42036;SDS011;30340;52.004;5.908;2023-01-19T11:31:51;4.07;;;1.75;;
42036;SDS011;30340;52.004;5.908;2023-01-19T11:34:22;4.45;;;1.23;;
42036;SDS011;30340;52.004;5.908;2023-01-19T11:37:03;3.20;;;1.40;;
42036;SDS011;30340;52.004;5.908;2023-01-19T11:39:51;1.45;;;0.82;;
42036;SDS011;30340;52.004;5.908;2023-01-19T11:42:18;2.50;;;1.33;;
42036;SDS011;30340;52.004;5.908;2023-01-19T11:45:09;3.08;;;1.40;;
42036;SDS011;30340;52.004;5.908;2023-01-19T11:50:27;2.42;;;1.38;;
42036;SDS011;30340;52.004;5.908;2023-01-19T11:53:05;3.50;;;1.20;;
42036;SDS011;30340;52.004;5.908;2023-01-19T11:55:42;3.22;;;1.08;;
42036;SDS011;30340;52.004;5.908;2023-01-19T11:58:18;0.82;;;0.80;;
42036;SDS011;30340;52.004;5.908;2023-01-19T12:00:55;3.40;;;1.20;;
42036;SDS011;30340;52.004;5.908;2023-01-19T12:03:39;5.38;;;1.55;;
42036;SDS011;30340;52.004;5.908;2023-01-19T12:06:11;5.30;;;2.50;;
42036;SDS011;30340;52.004;5.908;2023-01-19T12:11:30;3.10;;;1.70;;
42036;SDS011;30340;52.004;5.908;2023-01-19T12:13:59;6.35;;;2.53;;
42036;SDS011;30340;52.004;5.908;2023-01-19T12:16:29;2.38;;;1.25;;
42036;SDS011;30340;52.004;5.908;2023-01-19T12:18:59;1.45;;;1.20;;
42036;SDS011;30340;52.004;5.908;2023-01-19T12:21:29;6.75;;;2.08;;
42036;SDS011;30340;52.004;5.908;2023-01-19T12:29:26;3.03;;;1.53;;
42036;SDS011;30340;52.004;5.908;2023-01-19T12:34:44;1.58;;;1.08;;
42036;SDS011;30340;52.004;5.908;2023-01-19T12:37:29;1.27;;;1.17;;
42036;SDS011;30340;52.004;5.908;2023-01-19T12:40:16;0.90;;;0.90;;
42036;SDS011;30340;52.004;5.908;2023-01-19T12:42:44;3.65;;;1.80;;
42036;SDS011;30340;52.004;5.908;2023-01-19T12:45:16;2.33;;;1.45;;
42036;SDS011;30340;52.004;5.908;2023-01-19T12:47:53;3.83;;;1.55;;
42036;SDS011;30340;52.004;5.908;2023-01-19T12:50:20;3.10;;;1.38;;
42036;SDS011;30340;52.004;5.908;2023-01-19T12:52:55;2.20;;;1.30;;
42036;SDS011;30340;52.004;5.908;2023-01-19T12:55:24;1.27;;;1.00;;
42036;SDS011;30340;52.004;5.908;2023-01-19T13:18:43;1.38;;;1.17;;
42036;SDS011;30340;52.004;5.908;2023-01-19T13:21:09;4.22;;;1.02;;
42036;SDS011;30340;52.004;5.908;2023-01-19T13:26:11;1.33;;;0.82;;
42036;SDS011;30340;52.004;5.908;2023-01-19T13:28:43;1.63;;;0.82;;
42036;SDS011;30340;52.004;5.908;2023-01-19T13:31:10;0.70;;;0.70;;
42036;SDS011;30340;52.004;5.908;2023-01-19T13:33:38;5.28;;;1.15;;
42036;SDS011;30340;52.004;5.908;2023-01-19T13:36:17;2.75;;;1.27;;
42036;SDS011;30340;52.004;5.908;2023-01-19T13:38:44;1.20;;;1.10;;
42036;SDS011;30340;52.004;5.908;2023-01-19T13:41:13;0.93;;;0.82;;
42036;SDS011;30340;52.004;5.908;2023-01-19T13:43:42;2.15;;;1.10;;
42036;SDS011;30340;52.004;5.908;2023-01-19T13:46:10;0.65;;;0.65;;
42036;SDS011;30340;52.004;5.908;2023-01-19T13:48:37;1.42;;;0.77;;
42036;SDS011;30340;52.004;5.908;2023-01-19T13:51:04;0.82;;;0.65;;
42036;SDS011;30340;52.004;5.908;2023-01-19T13:53:32;1.80;;;1.42;;
42036;SDS011;30340;52.004;5.908;2023-01-19T13:56:04;0.60;;;0.60;;
42036;SDS011;30340;52.004;5.908;2023-01-19T13:58:31;0.50;;;0.50;;
42036;SDS011;30340;52.004;5.908;2023-01-19T14:00:57;1.52;;;0.60;;
42036;SDS011;30340;52.004;5.908;2023-01-19T14:03:23;0.60;;;0.60;;
42036;SDS011;30340;52.004;5.908;2023-01-19T14:05:52;0.60;;;0.60;;
42036;SDS011;30340;52.004;5.908;2023-01-19T14:08:19;1.85;;;0.50;;
42036;SDS011;30340;52.004;5.908;2023-01-19T14:13:21;0.60;;;0.60;;
42036;SDS011;30340;52.004;5.908;2023-01-19T14:16:00;1.35;;;0.68;;
42036;SDS011;30340;52.004;5.908;2023-01-19T14:18:31;1.88;;;0.60;;
42036;SDS011;30340;52.004;5.908;2023-01-19T14:21:08;0.85;;;0.70;;
42036;SDS011;30340;52.004;5.908;2023-01-19T14:23:52;0.57;;;0.57;;
42036;SDS011;30340;52.004;5.908;2023-01-19T14:26:40;0.68;;;0.68;;
42036;SDS011;30340;52.004;5.908;2023-01-19T14:29:35;0.60;;;0.60;;
42036;SDS011;30340;52.004;5.908;2023-01-19T14:32:11;0.40;;;0.40;;
42036;SDS011;30340;52.004;5.908;2023-01-19T14:37:28;1.27;;;0.70;;
42036;SDS011;30340;52.004;5.908;2023-01-19T14:44:47;0.50;;;0.50;;
42036;SDS011;30340;52.004;5.908;2023-01-19T14:47:26;0.50;;;0.50;;
42036;SDS011;30340;52.004;5.908;2023-01-19T14:49:55;0.50;;;0.50;;
42036;SDS011;30340;52.004;5.908;2023-01-19T14:52:29;0.50;;;0.50;;
42036;SDS011;30340;52.004;5.908;2023-01-19T14:54:58;0.60;;;0.60;;
42036;SDS011;30340;52.004;5.908;2023-01-19T14:57:27;0.50;;;0.50;;
42036;SDS011;30340;52.004;5.908;2023-01-19T14:59:53;0.40;;;0.40;;
42036;SDS011;30340;52.004;5.908;2023-01-19T15:02:19;0.50;;;0.50;;
42036;SDS011;30340;52.004;5.908;2023-01-19T15:04:46;0.50;;;0.50;;
42036;SDS011;30340;52.004;5.908;2023-01-19T15:07:21;0.40;;;0.40;;
42036;SDS011;30340;52.004;5.908;2023-01-19T15:09:49;0.60;;;0.60;;
42036;SDS011;30340;52.004;5.908;2023-01-19T15:12:15;1.42;;;0.98;;
42036;SDS011;30340;52.004;5.908;2023-01-19T15:14:42;0.60;;;0.60;;
42036;SDS011;30340;52.004;5.908;2023-01-19T15:17:13;0.52;;;0.52;;
42036;SDS011;30340;52.004;5.908;2023-01-19T15:19:49;0.50;;;0.50;;
42036;SDS011;30340;52.004;5.908;2023-01-19T15:22:16;2.28;;;0.65;;
42036;SDS011;30340;52.004;5.908;2023-01-19T15:24:41;0.45;;;0.43;;
42036;SDS011;30340;52.004;5.908;2023-01-19T15:27:09;0.50;;;0.50;;
42036;SDS011;30340;52.004;5.908;2023-01-19T15:29:35;0.50;;;0.50;;
42036;SDS011;30340;52.004;5.908;2023-01-19T15:32:10;0.40;;;0.40;;
42036;SDS011;30340;52.004;5.908;2023-01-19T15:34:37;0.50;;;0.50;;
42036;SDS011;30340;52.004;5.908;2023-01-19T15:37:03;0.55;;;0.55;;
42036;SDS011;30340;52.004;5.908;2023-01-19T15:39:28;0.50;;;0.50;;
42036;SDS011;30340;52.004;5.908;2023-01-19T15:41:54;0.73;;;0.73;;
42036;SDS011;30340;52.004;5.908;2023-01-19T15:44:20;2.00;;;0.73;;
42036;SDS011;30340;52.004;5.908;2023-01-19T15:46:45;0.70;;;0.68;;
42036;SDS011;30340;52.004;5.908;2023-01-19T15:49:11;1.00;;;0.93;;
42036;SDS011;30340;52.004;5.908;2023-01-19T15:51:36;1.17;;;0.90;;
42036;SDS011;30340;52.004;5.908;2023-01-19T15:54:02;1.77;;;0.90;;
42036;SDS011;30340;52.004;5.908;2023-01-19T15:56:28;3.63;;;1.45;;
42036;SDS011;30340;52.004;5.908;2023-01-19T15:58:55;1.55;;;1.00;;
42036;SDS011;30340;52.004;5.908;2023-01-19T16:01:23;2.25;;;1.25;;
42036;SDS011;30340;52.004;5.908;2023-01-19T16:03:58;1.20;;;1.05;;
42036;SDS011;30340;52.004;5.908;2023-01-19T16:06:25;1.70;;;1.10;;
42036;SDS011;30340;52.004;5.908;2023-01-19T16:08:51;0.77;;;0.77;;
42036;SDS011;30340;52.004;5.908;2023-01-19T16:11:18;1.10;;;0.93;;
42036;SDS011;30340;52.004;5.908;2023-01-19T16:13:44;1.42;;;1.17;;
42036;SDS011;30340;52.004;5.908;2023-01-19T16:16:14;2.33;;;1.20;;
42036;SDS011;30340;52.004;5.908;2023-01-19T16:18:41;2.58;;;1.67;;
42036;SDS011;30340;52.004;5.908;2023-01-19T16:21:07;2.88;;;1.55;;
42036;SDS011;30340;52.004;5.908;2023-01-19T16:23:32;2.78;;;1.40;;
42036;SDS011;30340;52.004;5.908;2023-01-19T16:25:59;3.20;;;1.95;;